Terminal Aerodrome Forecast
Issued by NWS Pendleton, OR

Home | Current Version | Previous Version | Text Only | Print | Product List | Glossary On
Versions: 1 2 3 4 5 6 7 8 9 10 11 12 13 14 15 16
482
FTUS46 KPDT 301720
TAFPDT
TAF
KPDT 301720Z 3018/0118 28010KT P6SM BKN050
     FM010300 VRB06KT P6SM SCT080
     FM010900 15006KT P6SM SKC=

USA.gov is the U.S. government's official web portal to all federal, state and local government web resources and services.